»·PEaware :: N171MA KSQL-KAVX

N171MA :: KSQL-KAVX

FLIGHT INFORMATION

Flight Status: Arrived
Operator: Privately registered:
United States
More flights under this callsign
Pilot: Tim M. (868)
Aircraft: CIRRUS SR-22 TURBO
(S22T)
More flights by this aircraft type
Origin: KSQL San Carlos
United States
Destination: KAVX Catalina
United States
More flights between these airports :: More routes between these airports
Route: +
File this flight plan on PilotEdge
Remarks:
Altitude:
(Current/Filed)
0ft
Speed:
(Current/Filed)
0kts
Departed: 01-Aug-20 01:14 PM
Arrived: 01-Aug-20 03:03 PM
Distance/Time
Traveled:
310nm/1:49
Distance/Time
To Go:
Arrived

Flight Plot

Page will automatically refresh every two minutes.

Flight plan parsing failed; only flown route is shown


Map Options




Map Legend


Flown Route
Filed Route
Departure Airport
Arrival Airport
Navaid (VOR, NDB)
Fix

Horizontal Profiles

Position Reports

Time Latitude Longitude Heading Altitude Ground
Speed
01-Aug-20 13:12 37.449386 -122.175699 137 2908ft 164kts
01-Aug-20 13:13 37.417596 -122.138994 135 3823ft 138kts
01-Aug-20 13:14 37.385149 -122.101059 136 3898ft 173kts
01-Aug-20 13:15 37.351459 -122.061699 135 4703ft 142kts
01-Aug-20 13:16 37.323269 -122.028794 135 5675ft 139kts
01-Aug-20 13:17 37.293665 -121.994285 136 6376ft 150kts
01-Aug-20 13:18 37.262931 -121.958526 136 7040ft 151kts
01-Aug-20 13:19 37.231761 -121.922281 136 7696ft 154kts
01-Aug-20 13:20 37.200256 -121.885701 136 8355ft 155kts
01-Aug-20 13:21 37.168311 -121.848645 136 9034ft 157kts
01-Aug-20 13:22 37.136174 -121.811365 136 9730ft 157kts
01-Aug-20 13:23 37.104051 -121.774194 137 10407ft 157kts
01-Aug-20 13:24 37.071729 -121.736834 138 11070ft 158kts
01-Aug-20 13:25 37.038647 -121.698687 138 11510ft 178kts
01-Aug-20 13:26 36.999256 -121.653320 138 11492ft 197kts
01-Aug-20 13:27 36.960114 -121.608247 138 11488ft 188kts
01-Aug-20 13:28 36.921794 -121.564199 138 11491ft 187kts
01-Aug-20 13:29 36.883366 -121.520091 138 11491ft 188kts
01-Aug-20 13:30 36.844991 -121.476120 138 11491ft 188kts
01-Aug-20 13:31 36.806407 -121.431960 138 11491ft 188kts
01-Aug-20 13:32 36.767887 -121.387941 138 11491ft 188kts
01-Aug-20 13:33 36.729206 -121.343796 138 11490ft 188kts
01-Aug-20 13:34 36.690655 -121.299861 138 11490ft 187kts
01-Aug-20 13:35 36.652137 -121.256032 138 11490ft 188kts
01-Aug-20 13:36 36.613517 -121.212152 138 11494ft 187kts
01-Aug-20 13:37 36.574925 -121.168355 138 11492ft 188kts
01-Aug-20 13:38 36.536204 -121.124478 138 11482ft 188kts
01-Aug-20 13:39 36.497182 -121.080326 138 11468ft 189kts
01-Aug-20 13:40 36.458164 -121.036236 138 11452ft 190kts
01-Aug-20 13:41 36.418958 -120.992005 138 11434ft 191kts
01-Aug-20 13:42 36.379601 -120.947660 138 11417ft 191kts
01-Aug-20 13:43 36.340261 -120.903401 138 11417ft 191kts
01-Aug-20 13:44 36.301280 -120.859603 138 11491ft 189kts
01-Aug-20 13:45 36.262252 -120.815814 138 11490ft 188kts
01-Aug-20 13:46 36.223546 -120.772448 138 11492ft 187kts
01-Aug-20 13:47 36.184683 -120.728976 138 11491ft 187kts
01-Aug-20 13:48 36.145962 -120.685717 138 11490ft 187kts
01-Aug-20 13:49 36.107191 -120.642461 138 11491ft 188kts
01-Aug-20 13:50 36.068503 -120.599354 138 11491ft 188kts
01-Aug-20 13:51 36.029599 -120.556074 138 11491ft 188kts
01-Aug-20 13:52 35.990728 -120.512864 139 11491ft 188kts
01-Aug-20 13:53 35.951718 -120.469602 139 11494ft 189kts
01-Aug-20 13:54 35.912571 -120.426233 139 11496ft 189kts
01-Aug-20 13:55 35.873386 -120.382881 139 11499ft 189kts
01-Aug-20 13:56 35.834193 -120.339574 140 11499ft 189kts
01-Aug-20 13:57 35.795168 -120.296510 140 11498ft 189kts
01-Aug-20 13:58 35.756027 -120.253388 140 11499ft 189kts
01-Aug-20 13:59 35.716871 -120.210304 140 11498ft 189kts
01-Aug-20 14:00 35.677709 -120.167275 140 11494ft 189kts
01-Aug-20 14:01 35.638558 -120.124315 140 11491ft 189kts
01-Aug-20 14:02 35.599365 -120.081367 140 11488ft 189kts
01-Aug-20 14:03 35.560237 -120.038549 140 11484ft 188kts
01-Aug-20 14:04 35.521032 -119.995703 140 11482ft 188kts
01-Aug-20 14:05 35.481934 -119.953023 140 11479ft 188kts
01-Aug-20 14:06 35.442830 -119.910425 140 11477ft 187kts
01-Aug-20 14:07 35.404059 -119.868218 140 11511ft 186kts
01-Aug-20 14:08 35.365209 -119.825989 140 11512ft 186kts
01-Aug-20 14:09 35.326316 -119.783770 140 11510ft 186kts
01-Aug-20 14:10 35.287496 -119.741689 140 11509ft 186kts
01-Aug-20 14:11 35.248608 -119.699583 141 11509ft 186kts
01-Aug-20 14:12 35.209616 -119.657435 141 11508ft 186kts
01-Aug-20 14:13 35.170701 -119.615406 141 11509ft 187kts
01-Aug-20 14:14 35.131760 -119.573437 141 11510ft 187kts
01-Aug-20 14:15 35.092747 -119.531423 141 11510ft 186kts
01-Aug-20 14:16 35.053893 -119.489631 141 11511ft 186kts
01-Aug-20 14:17 35.014971 -119.447835 141 11509ft 186kts
01-Aug-20 14:18 34.976091 -119.406130 141 11511ft 186kts
01-Aug-20 14:19 34.937093 -119.364361 142 11507ft 186kts
01-Aug-20 14:20 34.898004 -119.322555 142 11508ft 187kts
01-Aug-20 14:21 34.858848 -119.280721 142 11508ft 187kts
01-Aug-20 14:22 34.819777 -119.239005 143 11509ft 187kts
01-Aug-20 14:23 34.780732 -119.197417 142 11509ft 186kts
01-Aug-20 14:24 34.741445 -119.155623 142 11508ft 186kts
01-Aug-20 14:25 34.702339 -119.114055 143 11507ft 185kts
01-Aug-20 14:26 34.663346 -119.072657 142 11509ft 186kts
01-Aug-20 14:27 34.624357 -119.031365 143 11507ft 186kts
01-Aug-20 14:28 34.585188 -118.989878 143 11515ft 186kts
01-Aug-20 14:29 34.546021 -118.948474 143 11518ft 186kts
01-Aug-20 14:30 34.506948 -118.907210 143 11522ft 187kts
01-Aug-20 14:31 34.467692 -118.865828 143 11519ft 187kts
01-Aug-20 14:32 34.428208 -118.824247 143 11523ft 188kts
01-Aug-20 14:33 34.388815 -118.782800 143 11526ft 188kts
01-Aug-20 14:34 34.346673 -118.738643 142 10703ft 209kts
01-Aug-20 14:35 34.302263 -118.692027 142 9765ft 212kts
01-Aug-20 14:36 34.258554 -118.646664 142 9089ft 211kts
01-Aug-20 14:37 34.213034 -118.600220 142 7910ft 215kts
01-Aug-20 14:38 34.167391 -118.554211 142 6727ft 212kts
01-Aug-20 14:39 34.116855 -118.521888 162 5552ft 203kts
01-Aug-20 14:41 34.068417 -118.497962 160 5507ft 180kts
01-Aug-20 14:42 34.022309 -118.475425 160 5510ft 177kts
01-Aug-20 14:43 33.976556 -118.453066 160 5510ft 178kts
01-Aug-20 14:44 33.930653 -118.430593 160 5510ft 178kts
01-Aug-20 14:45 33.894808 -118.389565 140 5512ft 180kts
01-Aug-20 14:46 33.857013 -118.349708 139 5509ft 180kts
01-Aug-20 14:47 33.819820 -118.309311 140 5509ft 181kts
01-Aug-20 14:48 33.782206 -118.268605 140 5508ft 182kts
01-Aug-20 14:49 33.741661 -118.236326 198 5484ft 172kts
01-Aug-20 14:50 33.698480 -118.261197 206 5165ft 184kts
01-Aug-20 14:51 33.656081 -118.297007 218 4500ft 179kts
01-Aug-20 14:52 33.617739 -118.331927 219 4508ft 170kts
01-Aug-20 14:53 33.579813 -118.366378 219 4448ft 171kts
01-Aug-20 14:54 33.541966 -118.400699 219 4462ft 171kts
01-Aug-20 14:55 33.502551 -118.436580 219 4040ft 183kts
01-Aug-20 14:56 33.463226 -118.473080 217 3978ft 171kts
01-Aug-20 14:56 33.433618 -118.457842 127 3470ft 152kts
01-Aug-20 14:58 33.409084 -118.438338 228 2614ft 98kts
01-Aug-20 14:59 33.399838 -118.424318 52 1818ft 88kts
01-Aug-20 14:59 33.412926 -118.432102 269 2547ft 100kts
01-Aug-20 15:00 33.420605 -118.416295 48 2686ft 96kts
01-Aug-20 15:01 33.410426 -118.406310 252 1717ft 81kts
01-Aug-20 15:03 33.403613 -118.416663 114 1597ft 13kts
01-Aug-20 15:03 33.403844 -118.414785 239 1586ft 0kts
01-Aug-20 15:15 33.403346 -118.416297 27 1595ft 0kts

Navigation Log

Ident Type
Flight plan parsing failed, navigation log unavailable